This is the latest recevied weather packets stored in our database for station/object WX4ET. If no packets are shown the sender has not sent any weather packets the latest 1 day(s).
| Time | Temp. | Humidity | Pressure | Rain* | Wind** | Luminosity | Snow |
|---|---|---|---|---|---|---|---|
| 1778023822 | 22.78° C | 54% | 1005.9 hPa | 0 mm | 0 m/s | 30 W/m² | - |
| 1778023520 | 23.33° C | 54% | 1006 hPa | 0 mm | 0.45 m/s, 246° | 38 W/m² | - |
| 1778023217 | 23.33° C | 53% | 1005.9 hPa | 0 mm | 0.89 m/s, 234° | 39 W/m² | - |
| 1778022914 | 23.33° C | 53% | 1006.1 hPa | 0 mm | 1.34 m/s, 230° | 30 W/m² | - |
| 1778022613 | 23.33° C | 52% | 1005.9 hPa | 0 mm | 1.34 m/s, 262° | 27 W/m² | - |
| 1778022310 | 23.33° C | 52% | 1006.1 hPa | 0 mm | 1.34 m/s, 278° | 29 W/m² | - |
| 1778022006 | 23.89° C | 52% | 1006.2 hPa | 0 mm | 1.34 m/s, 296° | 49 W/m² | - |
| 1778021703 | 23.89° C | 51% | 1006 hPa | 0 mm | 1.79 m/s, 230° | 74 W/m² | - |
| 1778021399 | 23.89° C | 51% | 1006.1 hPa | 0 mm | 1.79 m/s, 279° | 84 W/m² | - |
| 1778021096 | 23.89° C | 51% | 1006 hPa | 0 mm | 1.79 m/s, 268° | 94 W/m² | - |
| 1778020793 | 24.44° C | 51% | 1006 hPa | 0 mm | 0.89 m/s, 262° | 111 W/m² | - |
| 1778020490 | 23.89° C | 52% | 1006 hPa | 0 mm | 1.34 m/s, 257° | 101 W/m² | - |
| 1778020187 | 24.44° C | 50% | 1005.9 hPa | 0 mm | 0.89 m/s, 224° | 119 W/m² | - |
| 1778019883 | 25° C | 49% | 1005.9 hPa | 0 mm | 1.34 m/s, 290° | 120 W/m² | - |
| 1778019579 | 25.56° C | 49% | 1006.1 hPa | 0 mm | 1.79 m/s, 304° | 164 W/m² | - |
| 1778019276 | 25.56° C | 48% | 1006.1 hPa | 0 mm | 0.89 m/s, 223° | 201 W/m² | - |
| 1778018973 | 25° C | 48% | 1006.1 hPa | 0 mm | 1.34 m/s, 243° | 337 W/m² | - |
| 1778018670 | 25° C | 49% | 1006.2 hPa | 0 mm | 1.79 m/s, 272° | 163 W/m² | - |
| 1778018368 | 25.56° C | 48% | 1006 hPa | 0 mm | 2.24 m/s, 283° | 252 W/m² | - |
| 1778018066 | 26.11° C | 49% | 1006 hPa | 0 mm | 0.89 m/s, 188° | 331 W/m² | - |
| 1778017763 | 25.56° C | 49% | 1005.8 hPa | 0 mm | 0.89 m/s, 206° | 314 W/m² | - |
| 1778017461 | 25.56° C | 49% | 1006 hPa | 0 mm | 0.89 m/s, 275° | 354 W/m² | - |
| 1778017158 | 25.56° C | 47% | 1006 hPa | 0 mm | 0.89 m/s, 299° | 349 W/m² | - |
| 1778016856 | 26.11° C | 49% | 1006.1 hPa | 0 mm | 0.89 m/s, 274° | 360 W/m² | - |
| 1778016552 | 25.56° C | 48% | 1006.1 hPa | 0 mm | 2.24 m/s, 323° | 399 W/m² | - |
* Rain latest hour (hover to see other rain measurements)
** Current wind speed in m/s (hover to see current wind gust speed)